createdAt,value
2022-12-22T00:02:21.652Z,69.30
2022-12-22T00:04:49.217Z,69.42
2022-12-22T00:07:15.664Z,69.74
2022-12-22T00:09:42.133Z,69.81
2022-12-22T00:12:11.412Z,70.07
2022-12-22T00:14:38.052Z,70.45
2022-12-22T00:17:26.933Z,70.37
2022-12-22T00:19:53.414Z,70.80
2022-12-22T00:22:24.954Z,71.08
2022-12-22T00:24:51.552Z,71.34
2022-12-22T00:27:29.434Z,71.31
2022-12-22T00:29:55.934Z,71.42
2022-12-22T00:32:23.445Z,71.38
2022-12-22T00:34:51.066Z,71.46
2022-12-22T00:37:20.648Z,71.14
2022-12-22T00:39:47.316Z,71.12
2022-12-22T00:42:13.804Z,70.81
2022-12-22T00:44:40.440Z,70.60
2022-12-22T00:47:13.965Z,70.43
2022-12-22T00:49:44.826Z,70.65
2022-12-22T00:52:12.083Z,70.66
2022-12-22T00:54:38.691Z,70.74
2022-12-22T00:57:05.604Z,70.71
2022-12-22T00:59:32.675Z,70.86
2022-12-22T01:01:59.432Z,70.79
2022-12-22T01:04:26.171Z,70.79
2022-12-22T01:06:52.656Z,70.98
2022-12-22T01:09:19.211Z,70.87
2022-12-22T01:11:45.851Z,71.01
2022-12-22T01:14:13.829Z,70.95
2022-12-22T01:16:40.415Z,70.95
2022-12-22T01:19:06.964Z,70.79
2022-12-22T01:21:33.634Z,70.68
2022-12-22T01:24:00.174Z,70.79
2022-12-22T01:26:27.255Z,70.95
2022-12-22T01:28:53.735Z,71.00
2022-12-22T01:31:29.723Z,70.47
2022-12-22T01:33:56.256Z,71.02
2022-12-22T01:36:24.099Z,71.04
2022-12-22T01:38:50.935Z,71.09
2022-12-22T01:41:21.222Z,70.72
2022-12-22T01:43:48.018Z,71.12
2022-12-22T01:46:29.733Z,70.23
2022-12-22T01:48:56.391Z,71.26
2022-12-22T01:51:27.891Z,71.07
2022-12-22T01:53:55.105Z,71.50
2022-12-22T01:56:21.948Z,71.47
2022-12-22T01:58:53.389Z,71.24
2022-12-22T02:01:19.950Z,71.46
2022-12-22T02:03:46.591Z,71.21
2022-12-22T02:06:30.995Z,70.37
2022-12-22T02:09:11.144Z,70.33
2022-12-22T02:12:05.247Z,69.98
2022-12-22T02:14:50.247Z,70.22
2022-12-22T02:17:19.265Z,70.78
2022-12-22T02:19:54.664Z,70.26
2022-12-22T02:22:35.508Z,70.03
2022-12-22T02:25:17.054Z,70.11
2022-12-22T02:27:45.544Z,70.56
2022-12-22T02:30:13.088Z,70.82
2022-12-22T02:32:42.658Z,70.43
2022-12-22T02:35:17.046Z,70.18
2022-12-22T02:38:02.763Z,70.09
2022-12-22T02:40:54.140Z,69.90
2022-12-22T02:43:38.733Z,70.38
2022-12-22T02:46:21.541Z,70.32
2022-12-22T02:49:17.708Z,70.17
2022-12-22T02:51:49.352Z,70.52
2022-12-22T02:54:17.564Z,71.06
2022-12-22T02:56:44.575Z,71.04
2022-12-22T02:59:11.074Z,71.19
2022-12-22T03:01:40.425Z,71.27
2022-12-22T03:04:07.053Z,71.39
2022-12-22T03:06:33.959Z,71.33
2022-12-22T03:09:00.537Z,71.39
2022-12-22T03:11:26.988Z,71.15
2022-12-22T03:13:53.513Z,71.16
2022-12-22T03:16:20.081Z,70.93
2022-12-22T03:18:46.646Z,70.95
2022-12-22T03:21:13.371Z,70.95
2022-12-22T03:23:40.282Z,70.99
2022-12-22T03:26:06.878Z,71.45
2022-12-22T03:28:33.420Z,71.81
2022-12-22T03:31:04.665Z,71.74
2022-12-22T03:33:32.533Z,72.04
2022-12-22T03:35:59.894Z,72.23
2022-12-22T03:38:26.677Z,72.32
2022-12-22T03:40:53.149Z,72.24
2022-12-22T03:43:20.011Z,72.41
2022-12-22T03:45:46.568Z,72.39
2022-12-22T03:48:13.238Z,72.43
2022-12-22T03:50:39.766Z,72.52
2022-12-22T03:53:06.251Z,72.54
2022-12-22T03:55:32.916Z,72.36
2022-12-22T03:57:59.383Z,72.20
2022-12-22T04:00:25.974Z,72.33
2022-12-22T04:02:52.572Z,72.21
2022-12-22T04:05:19.214Z,72.09
2022-12-22T04:07:45.812Z,71.97
2022-12-22T04:10:12.489Z,71.69
2022-12-22T04:12:39.087Z,71.57
2022-12-22T04:15:06.284Z,71.44
2022-12-22T04:17:32.745Z,71.24
2022-12-22T04:19:59.263Z,71.15
2022-12-22T04:22:25.856Z,71.22
2022-12-22T04:24:52.506Z,71.13
2022-12-22T04:27:18.989Z,71.02
2022-12-22T04:29:45.609Z,71.11
2022-12-22T04:32:12.218Z,70.99
2022-12-22T04:34:38.767Z,71.07
2022-12-22T04:37:16.488Z,70.99
2022-12-22T04:39:44.008Z,70.92
2022-12-22T04:42:10.580Z,71.00
2022-12-22T04:44:37.048Z,71.10
2022-12-22T04:47:03.616Z,71.01
2022-12-22T04:49:30.263Z,71.05
2022-12-22T04:51:56.892Z,71.12
2022-12-22T04:54:23.421Z,70.87
2022-12-22T04:56:50.594Z,70.92
2022-12-22T04:59:17.114Z,70.94
2022-12-22T05:01:43.862Z,70.89
2022-12-22T05:04:10.508Z,70.91
2022-12-22T05:06:37.017Z,70.90
2022-12-22T05:09:03.623Z,70.95
2022-12-22T05:11:30.150Z,70.76
2022-12-22T05:13:59.679Z,70.84
2022-12-22T05:16:28.688Z,70.95
2022-12-22T05:18:55.140Z,70.95
2022-12-22T05:21:23.283Z,70.74
2022-12-22T05:23:50.975Z,70.82
2022-12-22T05:26:18.832Z,71.05
2022-12-22T05:28:46.668Z,70.99
2022-12-22T05:31:23.146Z,70.44
2022-12-22T05:33:50.405Z,71.03
2022-12-22T05:36:17.080Z,70.75
2022-12-22T05:38:44.008Z,70.77
2022-12-22T05:41:10.938Z,70.90
2022-12-22T05:43:37.900Z,70.86
2022-12-22T05:46:06.650Z,70.70
2022-12-22T05:48:37.881Z,70.69
2022-12-22T05:51:05.862Z,70.50
2022-12-22T05:53:32.309Z,70.41
2022-12-22T05:55:58.831Z,70.17
2022-12-22T05:58:25.531Z,70.18
2022-12-22T06:00:52.098Z,70.18
2022-12-22T06:03:18.676Z,70.30
2022-12-22T06:05:45.329Z,70.27
2022-12-22T06:08:11.776Z,70.20
2022-12-22T06:10:38.285Z,70.22
2022-12-22T06:13:04.844Z,70.19
2022-12-22T06:15:31.341Z,70.08
2022-12-22T06:17:58.746Z,70.28
2022-12-22T06:20:25.407Z,70.44
2022-12-22T06:22:51.907Z,70.49
2022-12-22T06:25:19.053Z,70.63
2022-12-22T06:27:47.521Z,70.78
2022-12-22T06:30:15.824Z,70.66
2022-12-22T06:32:42.573Z,70.57
2022-12-22T06:35:10.068Z,70.54
2022-12-22T06:37:36.616Z,70.62
2022-12-22T06:40:03.983Z,70.48
2022-12-22T06:42:30.494Z,70.42
2022-12-22T06:44:57.000Z,70.47
2022-12-22T06:47:23.597Z,70.48
2022-12-22T06:49:50.088Z,70.57
2022-12-22T06:52:16.625Z,70.58
2022-12-22T06:54:43.151Z,70.60
2022-12-22T06:57:09.693Z,70.74
2022-12-22T06:59:36.155Z,70.78
2022-12-22T07:02:02.800Z,70.80
2022-12-22T07:04:29.328Z,70.90
2022-12-22T07:06:55.801Z,70.92
2022-12-22T07:09:22.250Z,71.09
2022-12-22T07:11:48.851Z,71.26
2022-12-22T07:14:15.416Z,71.63
2022-12-22T07:16:41.990Z,71.70
2022-12-22T07:19:08.605Z,71.78
2022-12-22T07:21:35.078Z,71.83
2022-12-22T07:24:01.711Z,71.73
2022-12-22T07:26:31.372Z,71.31
2022-12-22T07:28:57.975Z,71.72
2022-12-22T07:31:24.716Z,71.55
2022-12-22T07:33:52.552Z,71.50
2022-12-22T07:36:20.520Z,71.13
2022-12-22T07:38:49.768Z,70.92
2022-12-22T07:41:17.973Z,70.99
2022-12-22T07:43:44.384Z,70.26
2022-12-22T07:46:10.932Z,70.67
2022-12-22T07:48:37.636Z,70.57
2022-12-22T07:51:06.266Z,70.18
2022-12-22T07:53:34.316Z,70.24
2022-12-22T07:56:05.497Z,69.89
2022-12-22T07:58:32.057Z,70.24
2022-12-22T08:01:00.167Z,70.35
2022-12-22T08:03:26.753Z,70.22
2022-12-22T08:05:53.273Z,70.20
2022-12-22T08:08:19.768Z,70.45
2022-12-22T08:10:46.230Z,70.25
2022-12-22T08:13:12.872Z,70.30
2022-12-22T08:15:39.410Z,70.41
2022-12-22T08:18:06.007Z,70.43
2022-12-22T08:20:32.602Z,70.35
2022-12-22T08:22:59.156Z,70.53
2022-12-22T08:25:25.904Z,70.47
2022-12-22T08:27:55.598Z,70.36
2022-12-22T08:30:22.174Z,70.76
2022-12-22T08:32:51.004Z,70.60
2022-12-22T08:35:18.156Z,70.67
2022-12-22T08:37:46.432Z,70.58
2022-12-22T08:40:19.316Z,68.65
2022-12-22T08:42:47.187Z,70.21
2022-12-22T08:45:13.862Z,69.71
2022-12-22T08:47:40.580Z,70.05
2022-12-22T08:50:07.858Z,69.86
2022-12-22T08:52:34.382Z,70.16
2022-12-22T08:55:01.080Z,69.38
2022-12-22T08:57:27.682Z,69.07
2022-12-22T08:59:54.278Z,69.22
2022-12-22T09:02:20.888Z,68.71
2022-12-22T09:04:47.501Z,69.09
2022-12-22T09:07:14.100Z,68.32
2022-12-22T09:09:40.678Z,69.00
2022-12-22T09:12:07.607Z,68.72
2022-12-22T09:14:34.137Z,68.41
2022-12-22T09:17:00.861Z,68.52
2022-12-22T09:19:27.487Z,68.51
2022-12-22T09:21:55.167Z,68.29
2022-12-22T09:24:21.698Z,68.38
2022-12-22T09:26:48.192Z,68.37
2022-12-22T09:29:14.696Z,68.32
2022-12-22T09:31:41.784Z,68.02
2022-12-22T09:34:11.973Z,67.83
2022-12-22T09:36:43.476Z,67.76
2022-12-22T09:39:10.199Z,67.63
2022-12-22T09:41:57.407Z,64.61
2022-12-22T09:44:34.514Z,65.97
2022-12-22T09:47:04.744Z,65.85
2022-12-22T09:49:31.475Z,66.14
2022-12-22T09:52:02.876Z,65.34
2022-12-22T09:54:30.598Z,65.55
2022-12-22T09:56:57.840Z,65.72
2022-12-22T09:59:27.416Z,64.90
2022-12-22T10:02:05.328Z,63.90
2022-12-22T10:04:39.155Z,62.07
2022-12-22T10:07:37.003Z,62.38
2022-12-22T10:10:13.130Z,61.14
2022-12-22T10:12:39.616Z,63.70
2022-12-22T10:15:11.752Z,62.06
2022-12-22T10:17:40.781Z,63.81
2022-12-22T10:20:21.236Z,62.91
2022-12-22T10:22:57.094Z,62.81
2022-12-22T10:25:35.785Z,63.02
2022-12-22T10:28:20.662Z,62.57
2022-12-22T10:30:47.351Z,63.83
2022-12-22T10:33:18.607Z,62.02
2022-12-22T10:35:52.989Z,62.75
2022-12-22T10:38:24.127Z,63.41
2022-12-22T10:41:00.149Z,61.80
2022-12-22T10:43:38.675Z,60.22
2022-12-22T10:46:05.976Z,62.57
2022-12-22T10:48:35.754Z,61.48
2022-12-22T10:51:05.448Z,61.17
2022-12-22T10:53:57.876Z,61.17
2022-12-22T10:56:24.308Z,62.30
2022-12-22T10:59:04.748Z,60.40
2022-12-22T11:01:36.269Z,61.42
2022-12-22T11:04:26.845Z,60.50
2022-12-22T11:06:55.568Z,60.49
2022-12-22T11:09:33.917Z,61.37
2022-12-22T11:12:47.281Z,56.96
2022-12-22T11:15:37.056Z,58.26
2022-12-22T11:18:06.561Z,59.53
2022-12-22T11:20:51.640Z,57.27
2022-12-22T11:23:32.273Z,60.51
2022-12-22T11:25:58.770Z,59.93
2022-12-22T11:28:59.536Z,58.29
2022-12-22T11:31:49.835Z,59.24
2022-12-22T11:34:40.826Z,58.57
2022-12-22T11:37:19.716Z,55.68
2022-12-22T11:39:59.312Z,58.85
2022-12-22T11:43:00.075Z,58.24
2022-12-22T11:45:46.497Z,59.18
2022-12-22T11:48:24.738Z,59.55
2022-12-22T11:51:01.080Z,60.01
2022-12-22T11:53:55.909Z,60.17
2022-12-22T11:56:33.082Z,60.26
2022-12-22T11:59:18.468Z,61.35
2022-12-22T12:02:15.507Z,60.36
2022-12-22T12:05:23.337Z,60.73
2022-12-22T12:08:10.172Z,60.27
2022-12-22T12:10:45.692Z,60.78
2022-12-22T12:13:30.099Z,60.04
2022-12-22T12:16:08.631Z,60.58
2022-12-22T12:19:01.390Z,60.93
2022-12-22T12:21:29.783Z,62.06
2022-12-22T12:24:04.485Z,60.17
2022-12-22T12:26:36.983Z,61.36
2022-12-22T12:29:17.345Z,61.27
2022-12-22T12:32:00.609Z,61.44
2022-12-22T12:34:31.398Z,61.54
2022-12-22T12:37:07.916Z,60.57
2022-12-22T12:39:42.194Z,60.43
2022-12-22T12:42:17.997Z,59.79
2022-12-22T12:44:45.712Z,60.70
2022-12-22T12:47:26.054Z,59.59
2022-12-22T12:49:59.326Z,60.60
2022-12-22T12:52:41.246Z,59.93
2022-12-22T12:55:33.382Z,58.80
2022-12-22T12:58:02.939Z,61.03
2022-12-22T13:00:35.589Z,59.43
2022-12-22T13:03:04.953Z,60.69
2022-12-22T13:05:53.091Z,60.76
2022-12-22T13:08:32.235Z,61.25
2022-12-22T13:10:58.710Z,61.20
2022-12-22T13:13:25.157Z,61.66
2022-12-22T13:16:00.695Z,60.26
2022-12-22T13:18:27.231Z,61.44
2022-12-22T13:21:50.312Z,59.90
2022-12-22T13:24:29.163Z,60.49
2022-12-22T13:27:02.057Z,60.06
2022-12-22T13:29:47.206Z,58.49
2022-12-22T13:32:25.239Z,58.71
2022-12-22T13:35:30.385Z,58.48
2022-12-22T13:37:50.562Z,59.39
2022-12-22T13:40:22.411Z,59.70
2022-12-22T13:42:56.038Z,55.72
2022-12-22T13:45:37.181Z,58.98
2022-12-22T13:48:29.268Z,57.50
2022-12-22T13:51:00.516Z,57.93
2022-12-22T13:56:34.266Z,55.46
2022-12-22T13:59:02.564Z,57.93
2022-12-22T14:01:29.421Z,56.21
2022-12-22T14:04:01.701Z,56.68
2022-12-22T14:06:35.428Z,56.58
2022-12-22T14:09:26.433Z,55.84
2022-12-22T14:12:02.126Z,57.97
2022-12-22T14:14:34.996Z,56.39
2022-12-22T14:17:02.622Z,56.86
2022-12-22T14:19:33.989Z,54.12
2022-12-22T14:22:11.603Z,56.59
2022-12-22T14:24:44.453Z,55.98
2022-12-22T14:27:29.067Z,56.29
2022-12-22T14:29:57.532Z,54.83
2022-12-22T14:32:42.405Z,55.30
2022-12-22T14:35:37.887Z,55.96
2022-12-22T14:38:13.284Z,55.23
2022-12-22T14:40:42.064Z,55.59
2022-12-22T14:43:17.776Z,54.45
2022-12-22T14:45:49.227Z,54.17
2022-12-22T14:48:38.154Z,54.41
2022-12-22T14:51:05.369Z,54.67
2022-12-22T14:53:45.248Z,53.90
2022-12-22T14:56:13.728Z,54.58
2022-12-22T14:58:42.803Z,54.72
2022-12-22T15:01:23.064Z,52.04
2022-12-22T15:04:27.123Z,53.42
2022-12-22T15:07:37.289Z,53.24
2022-12-22T15:10:15.163Z,55.02
2022-12-22T15:12:43.439Z,55.14
2022-12-22T15:15:28.332Z,54.83
2022-12-22T15:17:55.000Z,55.29
2022-12-22T15:20:26.975Z,55.04
2022-12-22T15:22:54.078Z,55.51
2022-12-22T15:25:22.994Z,55.12
2022-12-22T15:27:50.384Z,55.73
2022-12-22T15:30:26.544Z,55.75
2022-12-22T15:32:54.858Z,55.68
2022-12-22T15:35:28.152Z,54.97
2022-12-22T15:37:54.723Z,55.65
2022-12-22T15:40:22.791Z,55.51
2022-12-22T15:42:49.898Z,56.02
2022-12-22T15:45:18.011Z,55.44
2022-12-22T15:47:48.730Z,55.49
2022-12-22T15:50:19.639Z,54.06
2022-12-22T15:52:51.327Z,55.17
2022-12-22T15:55:19.515Z,55.46
2022-12-22T15:57:46.738Z,53.56
2022-12-22T16:00:15.633Z,55.29
2022-12-22T16:02:42.387Z,55.44
2022-12-22T16:05:10.252Z,54.82
2022-12-22T16:07:37.800Z,54.97
2022-12-22T16:10:06.878Z,55.11
2022-12-22T16:12:33.508Z,55.39
2022-12-22T16:15:01.382Z,55.24
2022-12-22T16:17:29.255Z,55.55
2022-12-22T16:19:55.807Z,55.31
2022-12-22T16:22:32.097Z,54.86
2022-12-22T16:24:59.012Z,55.65
2022-12-22T16:27:25.714Z,55.47
2022-12-22T16:29:54.143Z,55.57
2022-12-22T16:32:28.935Z,55.10
2022-12-22T16:35:12.871Z,53.76
2022-12-22T16:37:39.392Z,54.78
2022-12-22T16:40:06.743Z,54.94
2022-12-22T16:45:21.228Z,54.40
2022-12-22T16:47:51.671Z,55.22
2022-12-22T16:50:21.464Z,55.26
2022-12-22T16:52:49.494Z,55.38
2022-12-22T16:55:18.187Z,54.92
2022-12-22T16:57:45.261Z,55.01
2022-12-22T17:00:18.130Z,54.80
2022-12-22T17:02:48.969Z,54.46
2022-12-22T17:05:44.059Z,54.90
2022-12-22T17:08:29.752Z,54.85
2022-12-22T17:11:02.128Z,53.72
2022-12-22T17:13:32.867Z,54.88
2022-12-22T17:16:02.357Z,54.51
2022-12-22T17:18:31.057Z,54.52
2022-12-22T17:21:00.113Z,54.70
2022-12-22T17:23:32.075Z,54.98
2022-12-22T17:26:00.822Z,54.93
2022-12-22T17:28:27.925Z,55.00
2022-12-22T17:30:54.764Z,55.51
2022-12-22T17:33:21.652Z,55.70
2022-12-22T17:35:48.632Z,55.81
2022-12-22T17:38:18.140Z,55.83
2022-12-22T17:40:45.637Z,55.92
2022-12-22T17:43:14.079Z,56.12
2022-12-22T17:45:42.142Z,56.16
2022-12-22T17:48:08.870Z,56.39
2022-12-22T17:50:36.077Z,56.50
2022-12-22T17:53:03.829Z,56.69
2022-12-22T17:58:17.796Z,56.89
2022-12-22T18:00:44.574Z,56.94
2022-12-22T18:03:15.286Z,56.36
2022-12-22T18:05:45.998Z,56.85
2022-12-22T18:08:17.401Z,56.97
2022-12-22T18:10:44.589Z,57.37
2022-12-22T18:13:17.316Z,56.42
2022-12-22T18:15:43.868Z,57.33
2022-12-22T18:18:16.092Z,56.91
2022-12-22T18:20:43.762Z,57.38
2022-12-22T18:23:16.450Z,57.07
2022-12-22T18:25:43.189Z,57.74
2022-12-22T18:28:14.673Z,56.50
2022-12-22T18:30:41.832Z,57.81
2022-12-22T18:33:08.713Z,57.75
2022-12-22T18:35:36.130Z,57.89
2022-12-22T18:38:03.098Z,57.88
2022-12-22T18:40:37.407Z,57.04
2022-12-22T18:43:11.801Z,57.89
2022-12-22T18:45:38.515Z,58.16
2022-12-22T18:48:05.238Z,58.00
2022-12-22T18:50:33.692Z,58.09
2022-12-22T18:53:06.264Z,57.62
2022-12-22T18:55:33.340Z,58.17
2022-12-22T18:58:00.477Z,58.20
2022-12-22T19:00:30.323Z,58.08
2022-12-22T19:03:00.495Z,57.78
2022-12-22T19:05:29.897Z,58.16
2022-12-22T19:07:57.637Z,58.25
2022-12-22T19:10:33.753Z,57.53
2022-12-22T19:13:01.924Z,58.59
2022-12-22T19:15:32.663Z,58.02
2022-12-22T19:17:59.306Z,58.71
2022-12-22T19:20:25.958Z,58.58
2022-12-22T19:22:52.807Z,58.72
2022-12-22T19:25:23.172Z,58.53
2022-12-22T19:27:52.983Z,58.61
2022-12-22T19:30:22.579Z,58.71
2022-12-22T19:32:53.753Z,58.64
2022-12-22T19:35:22.508Z,58.90
2022-12-22T19:37:51.095Z,59.01
2022-12-22T19:40:19.662Z,58.97
2022-12-22T19:42:49.965Z,58.96
2022-12-22T19:45:21.957Z,59.14
2022-12-22T19:47:49.744Z,59.52
2022-12-22T19:50:16.276Z,59.73
2022-12-22T19:52:43.132Z,59.79
2022-12-22T19:55:10.144Z,59.91
2022-12-22T19:57:37.861Z,60.00
2022-12-22T20:00:04.842Z,60.22
2022-12-22T20:02:38.991Z,60.47
2022-12-22T20:05:20.040Z,60.48
2022-12-22T20:07:46.545Z,60.61
2022-12-22T20:10:13.256Z,60.86
2022-12-22T20:12:41.360Z,60.80
2022-12-22T20:15:15.940Z,60.53
2022-12-22T20:17:42.705Z,61.14
2022-12-22T20:20:18.631Z,60.65
2022-12-22T20:22:52.378Z,60.69
2022-12-22T20:25:22.287Z,61.48
2022-12-22T20:27:49.888Z,61.87
2022-12-22T20:30:28.602Z,60.73
2022-12-22T20:32:56.067Z,61.93
2022-12-22T20:35:23.833Z,62.01
2022-12-22T20:37:52.193Z,62.04
2022-12-22T20:40:27.911Z,60.47
2022-12-22T20:42:58.073Z,61.51
2022-12-22T20:45:27.627Z,61.49
2022-12-22T20:47:54.299Z,61.93
2022-12-22T20:50:27.976Z,61.35
2022-12-22T20:52:55.691Z,61.23
2022-12-22T20:55:27.318Z,60.56
2022-12-22T20:57:54.604Z,61.69
2022-12-22T21:00:27.200Z,60.63
2022-12-22T21:02:54.663Z,61.33
2022-12-22T21:05:21.914Z,61.17
2022-12-22T21:07:49.646Z,61.01
2022-12-22T21:10:22.845Z,60.00
2022-12-22T21:12:50.130Z,60.96
2022-12-22T21:15:18.916Z,60.72
2022-12-22T21:17:46.765Z,60.73
2022-12-22T21:20:19.970Z,58.63
2022-12-22T21:22:46.988Z,60.63
2022-12-22T21:25:14.514Z,60.53
2022-12-22T21:27:47.098Z,60.04
2022-12-22T21:30:22.546Z,59.20
2022-12-22T21:32:50.204Z,60.15
2022-12-22T21:35:27.404Z,58.99
2022-12-22T21:37:57.120Z,59.98
2022-12-22T21:40:26.634Z,59.41
2022-12-22T21:42:54.344Z,60.01
2022-12-22T21:45:23.655Z,59.50
2022-12-22T21:47:50.254Z,59.96
2022-12-22T21:50:25.175Z,58.58
2022-12-22T21:52:52.733Z,59.37
2022-12-22T21:55:26.949Z,58.38
2022-12-22T21:57:53.849Z,59.68
2022-12-22T22:00:21.974Z,59.39
2022-12-22T22:02:48.732Z,57.94
2022-12-22T22:05:31.413Z,57.30
2022-12-22T22:07:59.102Z,59.39
2022-12-22T22:10:28.397Z,59.59
2022-12-22T22:12:55.714Z,59.51
2022-12-22T22:15:24.692Z,59.14
2022-12-22T22:17:51.381Z,59.84
2022-12-22T22:20:20.870Z,59.60
2022-12-22T22:22:49.105Z,59.87
2022-12-22T22:25:17.080Z,60.13
2022-12-22T22:27:47.957Z,60.27
2022-12-22T22:30:19.565Z,60.28
2022-12-22T22:32:47.040Z,60.61
2022-12-22T22:35:14.591Z,60.74
2022-12-22T22:37:41.217Z,60.92
2022-12-22T22:40:09.741Z,61.07
2022-12-22T22:42:37.398Z,61.39
2022-12-22T22:45:05.668Z,61.62
2022-12-22T22:47:32.296Z,62.24
2022-12-22T22:49:58.888Z,62.43
2022-12-22T22:52:25.580Z,62.66
2022-12-22T22:54:52.180Z,62.74
2022-12-22T22:57:18.816Z,62.99
2022-12-22T22:59:45.570Z,63.03
2022-12-22T23:02:14.198Z,63.08
2022-12-22T23:04:40.869Z,63.45
2022-12-22T23:07:07.528Z,63.75
2022-12-22T23:09:34.611Z,63.85
2022-12-22T23:12:01.165Z,63.64
2022-12-22T23:14:27.744Z,63.98
2022-12-22T23:16:54.597Z,64.29
2022-12-22T23:19:21.275Z,64.39
2022-12-22T23:21:47.787Z,64.43
2022-12-22T23:24:16.346Z,64.62
2022-12-22T23:26:42.959Z,64.73
2022-12-22T23:29:09.446Z,64.77
2022-12-22T23:31:36.613Z,64.78
2022-12-22T23:34:04.211Z,64.80
2022-12-22T23:36:31.503Z,64.86
2022-12-22T23:38:58.076Z,65.06
2022-12-22T23:41:24.676Z,65.14
2022-12-22T23:43:52.805Z,65.34
2022-12-22T23:46:19.312Z,65.17
2022-12-22T23:48:50.688Z,65.51
2022-12-22T23:51:17.244Z,65.52
2022-12-22T23:53:43.728Z,65.61
2022-12-22T23:56:10.213Z,65.77
2022-12-22T23:58:36.705Z,65.77
